1864 NOT_NAMED (1864011S07080)


IBTrACS version v04r00. Visit IBTrACS website for data access.
Please direct all questions to the IBTrACS Q and A forum

Storm track - Intensity - Wind Radii - Intensity Data - Source Data - All data

Summary Information

Storm ID 1864011S07080
Start Jan 11 06Z
End Jan 18 06Z
ATCF IDs
Track status Best track data.

Storm track plot

Map of storm track

Intensity plots

No Intensity information for this storm


Radial wind information

No radial wind information for this storm


Position and Intensity Table

BASIN ISO_TIME_________ NATURE LAT LON
degrees north degrees east
SI 1864-01-11 06:00:00 NR -7.10 79.60
SI 09:00:00 NR -7.15 79.45
SI 12:00:00 NR -7.20 79.30
SI 15:00:00 NR -7.25 79.15
SI 18:00:00 NR -7.30 79.00
SI 21:00:00 NR -7.35 78.86
SI 1864-01-12 00:00:00 NR -7.39 78.71
SI 03:00:00 NR -7.44 78.56
SI 06:00:00 NR -7.50 78.40
SI 09:00:00 NR -7.57 78.21
SI 12:00:00 NR -7.64 78.00
SI 15:00:00 NR -7.72 77.79
SI 18:00:00 NR -7.80 77.60
SI 21:00:00 NR -7.85 77.50
SI 1864-01-13 00:00:00 NR -7.90 77.40
SI 03:00:00 NR -7.98 77.26
SI 06:00:00 NR -8.10 77.00
SI 09:00:00 NR -8.28 76.57
SI 12:00:00 NR -8.50 76.04
SI 15:00:00 NR -8.74 75.43
SI 18:00:00 NR -9.00 74.80
SI 21:00:00 NR -9.23 74.21
SI 1864-01-14 00:00:00 NR -9.48 73.60
SI 03:00:00 NR -9.73 72.99
SI 06:00:00 NR -10.00 72.40
SI 09:00:00 NR -10.30 71.83
SI 12:00:00 NR -10.61 71.27
SI 15:00:00 NR -10.91 70.73
SI 18:00:00 NR -11.20 70.20
SI 21:00:00 NR -11.46 69.64
SI 1864-01-15 00:00:00 NR -11.70 69.11
SI 03:00:00 NR -11.91 68.62
SI 06:00:00 NR -12.10 68.20
SI 09:00:00 NR -12.27 67.87
SI 12:00:00 NR -12.41 67.62
SI 15:00:00 NR -12.55 67.40
SI 18:00:00 NR -12.70 67.20
SI 21:00:00 NR -12.79 67.01
SI 1864-01-16 00:00:00 NR -12.90 66.82
SI 03:00:00 NR -13.08 66.59
SI 06:00:00 NR -13.40 66.30
SI 09:00:00 NR -13.93 65.86
SI 12:00:00 NR -14.58 65.35
SI 15:00:00 NR -15.30 64.85
SI 18:00:00 NR -16.00 64.40
SI 21:00:00 NR -16.64 64.09
SI 1864-01-17 00:00:00 NR -17.25 63.84
SI 03:00:00 NR -17.81 63.66
SI 06:00:00 NR -18.30 63.50
SI 09:00:00 NR -18.68 63.34
SI 12:00:00 NR -19.00 63.20
SI 15:00:00 NR -19.29 63.09
SI 18:00:00 NR -19.60 63.00
SI 21:00:00 NR -19.95 62.92
SI 1864-01-18 00:00:00 NR -20.35 62.84
SI 03:00:00 NR -20.77 62.77
SI 06:00:00 NR -21.20 62.70

Source Information

Agency Information
USA
TOKYO
CMA
HKO
NEWDELHI
REUNION
BOM
NADI
WELLINGTON
DS824
TD9636 cons_worldwide_trop_cyclone_18710101-19891231-005:Line=735
TD9635
NEUMANN
MLC

All available IBTrACS Data

SEASON BASIN SUBBASIN ISO_TIME_________ NATURE LAT LON DIST2LAND LANDFALL IFLAG USA SSHS TD9636 LAT TD9636 LON TD9636 STAGE STORM SPEED STORM DIR
Year degrees north degrees east km km 1 degrees north degrees east kts degrees
1864 SI MM 1864-01-11 06:00:00 NR -7.10 79.60 1460 1460 __________O___ -1 -7.10 79.60 7 3 252
1864 SI MM 09:00:00 NR -7.15 79.45 1474 1474 __________P___ -1 -7.15 79.45 7 3 251
1864 SI MM 12:00:00 NR -7.20 79.30 1475 1475 __________P___ -1 -7.20 79.30 7 3 251
1864 SI MM 15:00:00 NR -7.25 79.15 1488 1488 __________P___ -1 -7.25 79.15 7 3 252
1864 SI MM 18:00:00 NR -7.30 79.00 1489 1489 __________O___ -1 -7.30 79.00 7 3 252
1864 SI MM 21:00:00 NR -7.35 78.86 1491 1491 __________P___ -1 -7.35 78.86 7 3 252
1864 SI MM 1864-01-12 00:00:00 NR -7.39 78.71 1505 1505 __________P___ -1 -7.39 78.71 7 3 252
1864 SI MM 03:00:00 NR -7.44 78.56 1506 1506 __________P___ -1 -7.44 78.56 7 3 251
1864 SI MM 06:00:00 NR -7.50 78.40 1521 1521 __________O___ -1 -7.50 78.40 7 4 251
1864 SI MM 09:00:00 NR -7.57 78.21 1536 1536 __________P___ -1 -7.57 78.21 7 4 250
1864 SI MM 12:00:00 NR -7.64 78.00 1540 1540 __________P___ -1 -7.64 78.00 7 4 249
1864 SI MM 15:00:00 NR -7.72 77.79 1555 1555 __________P___ -1 -7.72 77.79 7 4 248
1864 SI MM 18:00:00 NR -7.80 77.60 1570 1570 __________O___ -1 -7.80 77.60 7 3 246
1864 SI MM 21:00:00 NR -7.85 77.50 1584 1584 __________P___ -1 -7.85 77.50 7 2 242
1864 SI MM 1864-01-13 00:00:00 NR -7.90 77.40 1586 1586 __________P___ -1 -7.90 77.40 7 3 241
1864 SI MM 03:00:00 NR -7.98 77.26 1600 1600 __________P___ -1 -7.98 77.26 7 4 244
1864 SI MM 06:00:00 NR -8.10 77.00 1618 1618 __________O___ -1 -8.10 77.00 7 7 246
1864 SI MM 09:00:00 NR -8.28 76.57 1651 1651 __________P___ -1 -8.28 76.57 7 10 247
1864 SI MM 12:00:00 NR -8.50 76.04 1692 1692 __________P___ -1 -8.50 76.04 7 12 248
1864 SI MM 15:00:00 NR -8.74 75.43 1734 1734 __________P___ -1 -8.74 75.43 7 13 248
1864 SI MM 18:00:00 NR -9.00 74.80 1788 1788 __________O___ -1 -9.00 74.80 7 13 248
1864 SI MM 21:00:00 NR -9.23 74.21 1832 1832 __________P___ -1 -9.23 74.21 7 13 248
1864 SI MM 1864-01-14 00:00:00 NR -9.48 73.60 1889 1889 __________P___ -1 -9.48 73.60 7 13 247
1864 SI MM 03:00:00 NR -9.73 72.99 1936 1936 __________P___ -1 -9.73 72.99 7 13 246
1864 SI MM 06:00:00 NR -10.00 72.40 1939 1875 __________O___ -1 -10.00 72.40 7 13 244
1864 SI MM 09:00:00 NR -10.30 71.83 1867 1803 __________P___ -1 -10.30 71.83 7 13 241
1864 SI MM 12:00:00 NR -10.61 71.27 1803 1739 __________P___ -1 -10.61 71.27 7 12 240
1864 SI MM 15:00:00 NR -10.91 70.73 1731 1667 __________P___ -1 -10.91 70.73 7 12 241
1864 SI MM 18:00:00 NR -11.20 70.20 1667 1610 __________O___ -1 -11.20 70.20 7 12 243
1864 SI MM 21:00:00 NR -11.46 69.64 1595 1538 __________P___ -1 -11.46 69.64 7 12 245
1864 SI MM 1864-01-15 00:00:00 NR -11.70 69.11 1538 1482 __________P___ -1 -11.70 69.11 7 11 246
1864 SI MM 03:00:00 NR -11.91 68.62 1482 1434 __________P___ -1 -11.91 68.62 7 10 246
1864 SI MM 06:00:00 NR -12.10 68.20 1434 1395 __________O___ -1 -12.10 68.20 7 8 244
1864 SI MM 09:00:00 NR -12.27 67.87 1395 1363 __________P___ -1 -12.27 67.87 7 7 241
1864 SI MM 12:00:00 NR -12.41 67.62 1363 1339 __________P___ -1 -12.41 67.62 7 5 238
1864 SI MM 15:00:00 NR -12.55 67.40 1331 1308 __________P___ -1 -12.55 67.40 7 5 235
1864 SI MM 18:00:00 NR -12.70 67.20 1308 1284 __________O___ -1 -12.70 67.20 7 5 239
1864 SI MM 21:00:00 NR -12.79 67.01 1284 1260 __________P___ -1 -12.79 67.01 7 4 242
1864 SI MM 1864-01-16 00:00:00 NR -12.90 66.82 1260 1229 __________P___ -1 -12.90 66.82 7 5 234
1864 SI MM 03:00:00 NR -13.08 66.59 1229 1183 __________P___ -1 -13.08 66.59 7 7 225
1864 SI MM 06:00:00 NR -13.40 66.30 1183 1113 __________O___ -1 -13.40 66.30 7 11 220
1864 SI MM 09:00:00 NR -13.93 65.86 1113 1029 __________P___ -1 -13.93 65.86 7 15 218
1864 SI MM 12:00:00 NR -14.58 65.35 1022 932 __________P___ -1 -14.58 65.35 7 17 216
1864 SI MM 15:00:00 NR -15.30 64.85 924 843 __________P___ -1 -15.30 64.85 7 17 213
1864 SI MM 18:00:00 NR -16.00 64.40 843 780 __________O___ -1 -16.00 64.40 7 15 209
1864 SI MM 21:00:00 NR -16.64 64.09 780 729 __________P___ -1 -16.64 64.09 7 14 203
1864 SI MM 1864-01-17 00:00:00 NR -17.25 63.84 719 680 __________P___ -1 -17.25 63.84 7 13 199
1864 SI MM 03:00:00 NR -17.81 63.66 680 638 __________P___ -1 -17.81 63.66 7 11 197
1864 SI MM 06:00:00 NR -18.30 63.50 638 603 __________O___ -1 -18.30 63.50 7 9 199
1864 SI MM 09:00:00 NR -18.68 63.34 603 583 __________P___ -1 -18.68 63.34 7 8 202
1864 SI MM 12:00:00 NR -19.00 63.20 583 565 __________P___ -1 -19.00 63.20 7 7 201
1864 SI MM 15:00:00 NR -19.29 63.09 565 549 __________P___ -1 -19.29 63.09 7 6 198
1864 SI MM 18:00:00 NR -19.60 63.00 549 534 __________O___ -1 -19.60 63.00 7 7 194
1864 SI MM 21:00:00 NR -19.95 62.92 533 521 __________P___ -1 -19.95 62.92 7 8 191
1864 SI MM 1864-01-18 00:00:00 NR -20.35 62.84 521 521 __________P___ -1 -20.35 62.84 7 8 190
1864 SI MM 03:00:00 NR -20.77 62.77 523 514 __________P___ -1 -20.77 62.77 7 9 189
1864 SI MM 06:00:00 NR -21.20 62.70 519 __________O___ -1 -21.20 62.70 7 9 188